Time;durP1;ratioP1;P1;durP2;ratioP2;P2;SDS_P1;SDS_P2;PMS_P1;PMS_P2;Temp;Humidity;BMP_temperature;BMP_pressure;BME280_temperature;BME280_humidity;BME280_pressure;Samples;Min_cycle;Max_cycle;Signal;HPM_P1;HPM_P2
2023/10/20 00:01:53;;;;;;;7.68;3.53;;;24.30;99.90;;;;;;5095919;28;20274;-85
2023/10/20 00:04:25;;;;;;;7.95;3.50;;;24.30;99.90;;;;;;5100804;28;20203;-85
2023/10/20 00:06:58;;;;;;;6.10;3.50;;;24.40;99.90;;;;;;5097282;28;20666;-79
2023/10/20 00:09:29;;;;;;;7.60;4.00;;;24.30;99.90;;;;;;5097280;28;20606;-85
2023/10/20 00:12:00;;;;;;;6.78;4.03;;;24.50;99.90;;;;;;5089299;28;20280;-84
2023/10/20 00:14:31;;;;;;;6.80;4.45;;;24.70;99.90;;;;;;5081485;28;20184;-85
2023/10/20 00:17:02;;;;;;;7.70;4.82;;;24.70;99.90;;;;;;5082536;28;20207;-84
2023/10/20 00:19:34;;;;;;;6.55;4.57;;;24.80;99.90;;;;;;5094207;28;20601;-85
2023/10/20 00:22:05;;;;;;;14.43;5.40;;;25.10;99.90;;;;;;5094221;28;20192;-87
2023/10/20 00:24:36;;;;;;;8.18;5.00;;;25.20;99.90;;;;;;5096795;28;20213;-82
2023/10/20 00:27:08;;;;;;;9.55;5.78;;;25.20;99.90;;;;;;5084066;28;20194;-83
2023/10/20 00:29:39;;;;;;;11.00;6.38;;;25.20;99.90;;;;;;5089820;28;20188;-84
2023/10/20 00:32:10;;;;;;;11.27;6.20;;;25.20;99.90;;;;;;5093603;28;20529;-87
2023/10/20 00:34:43;;;;;;;13.95;6.95;;;25.20;99.90;;;;;;5093737;28;20198;-84
2023/10/20 00:37:14;;;;;;;8.77;5.85;;;25.30;99.90;;;;;;5080540;28;20216;-85
2023/10/20 00:39:45;;;;;;;13.00;6.68;;;25.30;99.90;;;;;;5088303;28;20192;-83
2023/10/20 00:42:15;;;;;;;11.68;6.50;;;25.20;99.90;;;;;;5086828;28;20225;-86
2023/10/20 00:44:46;;;;;;;10.63;6.30;;;25.30;99.90;;;;;;5090385;28;20251;-82
2023/10/20 00:47:18;;;;;;;10.93;6.78;;;25.50;99.90;;;;;;5093024;28;20188;-84
2023/10/20 00:49:50;;;;;;;11.48;6.28;;;25.30;99.90;;;;;;5096038;28;20192;-86
2023/10/20 00:52:22;;;;;;;14.57;6.97;;;25.40;99.90;;;;;;5095429;28;20630;-81
2023/10/20 00:54:53;;;;;;;9.95;7.25;;;25.50;99.90;;;;;;5104821;28;20191;-86
2023/10/20 00:57:25;;;;;;;12.00;7.53;;;25.70;99.90;;;;;;5112918;28;20278;-83
2023/10/20 00:59:56;;;;;;;17.98;7.60;;;25.80;99.90;;;;;;5098441;28;20192;-81
2023/10/20 01:02:29;;;;;;;12.98;8.02;;;25.80;99.90;;;;;;5091351;28;20689;-86
2023/10/20 01:05:05;;;;;;;12.95;7.75;;;25.80;99.90;;;;;;5091190;28;20222;-80
2023/10/20 01:07:36;;;;;;;11.18;7.47;;;26.00;99.90;;;;;;5091720;28;20207;-83
2023/10/20 01:10:09;;;;;;;12.50;7.85;;;25.90;99.90;;;;;;5096929;28;20195;-84
2023/10/20 01:12:40;;;;;;;12.45;7.93;;;25.70;99.90;;;;;;5105132;28;20551;-84
2023/10/20 01:15:11;;;;;;;12.00;7.57;;;25.80;99.90;;;;;;5104238;28;20188;-83
2023/10/20 01:17:42;;;;;;;13.23;7.90;;;25.90;99.90;;;;;;5101077;28;20256;-87
2023/10/20 01:20:15;;;;;;;17.15;8.48;;;25.70;99.90;;;;;;5099780;28;20279;-84
2023/10/20 01:22:46;;;;;;;12.52;7.85;;;25.70;99.90;;;;;;5110815;28;20198;-86
2023/10/20 01:25:22;;;;;;;13.27;9.05;;;25.60;99.90;;;;;;5099587;28;20212;-85
2023/10/20 01:27:53;;;;;;;17.15;9.40;;;25.60;99.90;;;;;;5100237;28;20188;-86
2023/10/20 01:30:25;;;;;;;15.32;8.95;;;25.60;99.90;;;;;;5101199;28;20189;-87
2023/10/20 01:32:56;;;;;;;18.25;10.43;;;25.70;99.90;;;;;;5102842;28;20582;-84
2023/10/20 01:35:27;;;;;;;16.08;9.38;;;25.70;99.90;;;;;;5097897;28;20635;-87
2023/10/20 01:37:59;;;;;;;15.23;9.60;;;25.90;99.90;;;;;;5103125;28;20202;-79
2023/10/20 01:40:31;;;;;;;17.65;9.57;;;26.00;99.90;;;;;;5097100;28;20199;-88
2023/10/20 01:43:02;;;;;;;14.35;9.40;;;25.80;99.90;;;;;;5101090;28;20554;-86
2023/10/20 01:45:33;;;;;;;12.88;9.30;;;25.90;99.90;;;;;;5099975;28;20214;-82
2023/10/20 01:48:04;;;;;;;14.32;9.70;;;25.90;99.90;;;;;;5105446;28;20267;-85
2023/10/20 01:50:35;;;;;;;18.13;10.45;;;26.00;99.90;;;;;;5095568;28;20238;-86
2023/10/20 01:53:06;;;;;;;17.27;10.32;;;26.20;99.90;;;;;;5093292;28;20185;-86
2023/10/20 01:55:40;;;;;;;14.48;10.38;;;25.80;99.90;;;;;;5093963;28;20188;-87
2023/10/20 01:58:11;;;;;;;16.73;9.90;;;25.80;99.90;;;;;;5088644;28;20196;-83
2023/10/20 02:00:41;;;;;;;16.13;10.15;;;25.90;99.90;;;;;;5072770;28;20670;-85
2023/10/20 02:03:12;;;;;;;16.90;9.70;;;26.20;99.90;;;;;;5071596;28;20197;-84
2023/10/20 02:05:43;;;;;;;13.32;9.27;;;26.20;99.90;;;;;;5071952;28;20244;-86
2023/10/20 02:08:14;;;;;;;14.85;9.93;;;26.20;99.90;;;;;;5071581;28;20193;-83
2023/10/20 02:10:48;;;;;;;15.88;10.25;;;26.20;99.90;;;;;;5072044;28;20185;-88
2023/10/20 02:13:19;;;;;;;14.95;10.40;;;26.10;99.90;;;;;;5076192;28;20683;-86
2023/10/20 02:15:51;;;;;;;15.48;10.90;;;26.00;99.90;;;;;;5076264;28;20278;-88
2023/10/20 02:18:22;;;;;;;15.80;10.75;;;25.70;99.90;;;;;;5087113;28;20181;-89
2023/10/20 02:21:03;;;;;;;16.60;11.13;;;25.70;99.90;;;;;;5076183;28;20244;-85
2023/10/20 02:23:34;;;;;;;16.17;11.48;;;25.60;99.90;;;;;;5081929;28;20199;-84
2023/10/20 02:26:09;;;;;;;21.58;11.82;;;25.60;99.90;;;;;;5085216;28;20283;-82
2023/10/20 02:28:40;;;;;;;18.05;11.68;;;25.80;99.90;;;;;;5084062;28;20291;-83
2023/10/20 02:31:19;;;;;;;18.77;11.40;;;26.00;99.90;;;;;;5096795;28;20188;-86
2023/10/20 02:33:50;;;;;;;18.52;12.57;;;25.70;99.90;;;;;;5090462;28;20235;-80
2023/10/20 02:36:21;;;;;;;19.95;12.20;;;25.70;99.90;;;;;;5094643;28;20216;-79
2023/10/20 02:38:53;;;;;;;17.55;12.30;;;25.60;99.90;;;;;;5089599;28;20284;-84
2023/10/20 02:41:26;;;;;;;18.35;11.75;;;25.40;99.90;;;;;;5089513;28;20697;-78
2023/10/20 02:43:57;;;;;;;20.83;11.75;;;25.50;99.90;;;;;;5094390;28;20582;-86
2023/10/20 02:46:36;;;;;;;18.42;12.23;;;25.60;99.90;;;;;;5095939;28;20184;-87
2023/10/20 02:49:07;;;;;;;20.92;12.13;;;25.40;99.90;;;;;;5096685;28;20207;-82
2023/10/20 02:51:39;;;;;;;16.67;12.40;;;25.20;99.90;;;;;;5094614;28;20236;-84
2023/10/20 02:54:10;;;;;;;20.77;12.23;;;25.10;99.90;;;;;;5081351;28;20189;-80
2023/10/20 02:56:44;;;;;;;20.15;14.07;;;25.00;99.90;;;;;;5087843;28;20279;-82
2023/10/20 02:59:14;;;;;;;18.67;12.65;;;24.90;99.90;;;;;;5090790;28;20292;-80
2023/10/20 03:01:45;;;;;;;19.45;13.75;;;24.80;99.90;;;;;;5092293;28;20205;-78
2023/10/20 03:04:17;;;;;;;15.18;11.60;;;24.70;99.90;;;;;;5088955;28;20218;-84
2023/10/20 03:06:48;;;;;;;19.25;12.35;;;24.70;99.90;;;;;;5094571;28;20188;-83
2023/10/20 03:09:18;;;;;;;22.55;12.98;;;24.80;99.90;;;;;;5091427;28;20196;-81
2023/10/20 03:11:51;;;;;;;22.45;12.73;;;24.80;99.90;;;;;;5082941;28;20193;-79
2023/10/20 03:14:22;;;;;;;16.45;11.63;;;24.70;99.90;;;;;;5089846;28;20317;-79
2023/10/20 03:16:53;;;;;;;14.93;10.57;;;24.70;99.90;;;;;;5090011;28;20292;-80
2023/10/20 03:19:24;;;;;;;14.65;10.88;;;24.60;99.90;;;;;;5084576;28;20189;-82
2023/10/20 03:21:55;;;;;;;15.40;10.10;;;24.70;99.90;;;;;;5074304;28;20276;-80
2023/10/20 03:24:26;;;;;;;13.23;9.80;;;24.60;99.90;;;;;;5089044;28;20680;-85
2023/10/20 03:26:58;;;;;;;17.58;9.77;;;24.50;99.90;;;;;;5109005;28;20198;-82
2023/10/20 03:29:29;;;;;;;14.70;9.55;;;24.40;99.90;;;;;;5099159;28;20189;-82
2023/10/20 03:32:00;;;;;;;14.88;9.60;;;24.40;99.90;;;;;;5092772;28;20203;-80
2023/10/20 03:34:33;;;;;;;14.45;9.68;;;24.60;99.90;;;;;;5085955;28;20200;-81
2023/10/20 03:37:04;;;;;;;14.63;9.50;;;24.60;99.90;;;;;;5091691;28;20652;-78
2023/10/20 03:39:36;;;;;;;16.55;9.30;;;24.50;99.90;;;;;;5089585;28;20279;-79
2023/10/20 03:42:10;;;;;;;14.65;8.90;;;24.70;99.90;;;;;;5088902;28;20196;-79
2023/10/20 03:44:42;;;;;;;12.82;8.70;;;24.80;99.90;;;;;;5088988;28;20217;-80
2023/10/20 03:47:13;;;;;;;15.02;8.52;;;25.00;99.90;;;;;;5084028;28;20196;-85
2023/10/20 03:49:45;;;;;;;12.98;8.10;;;24.80;99.90;;;;;;5086745;28;20303;-84
2023/10/20 03:52:20;;;;;;;13.00;8.00;;;24.80;99.90;;;;;;5084329;28;20189;-86
2023/10/20 03:54:52;;;;;;;12.27;7.97;;;24.40;99.90;;;;;;5080971;28;20208;-77
2023/10/20 03:57:25;;;;;;;14.13;7.95;;;24.40;99.90;;;;;;5086051;28;20324;-79
2023/10/20 03:59:55;;;;;;;12.38;7.75;;;24.50;99.90;;;;;;5087928;28;20242;-79
2023/10/20 04:02:27;;;;;;;12.68;7.20;;;24.40;99.90;;;;;;5090092;28;20586;-77
2023/10/20 04:04:58;;;;;;;9.48;6.78;;;24.40;99.90;;;;;;5093161;28;20223;-75
2023/10/20 04:07:29;;;;;;;9.05;6.50;;;24.20;99.90;;;;;;5092628;28;20287;-76
2023/10/20 04:10:01;;;;;;;11.40;6.55;;;24.20;99.90;;;;;;5093354;28;20216;-79
2023/10/20 04:12:34;;;;;;;10.75;6.03;;;24.20;99.90;;;;;;5093722;28;20212;-82
2023/10/20 04:15:05;;;;;;;11.15;5.97;;;24.30;99.90;;;;;;5087178;28;20607;-76
2023/10/20 04:17:38;;;;;;;11.82;5.70;;;24.40;99.90;;;;;;5090778;28;20221;-79
2023/10/20 04:20:15;;;;;;;8.68;5.25;;;24.40;99.90;;;;;;5087935;28;20570;-80
2023/10/20 04:22:49;;;;;;;9.57;5.38;;;24.30;99.90;;;;;;5087183;28;20614;-78
2023/10/20 04:25:21;;;;;;;8.13;4.88;;;24.30;99.90;;;;;;5090677;28;20265;-74
2023/10/20 04:27:57;;;;;;;8.32;5.25;;;24.20;99.90;;;;;;5091021;28;20280;-74
2023/10/20 04:53:32;;;;;;;9.27;4.10;;;24.00;99.90;;;;;;5031234;28;20189;-82
2023/10/20 04:58:56;;;;;;;10.30;4.45;;;24.20;99.90;;;;;;5080604;28;20211;-82
2023/10/20 05:01:39;;;;;;;6.75;4.20;;;24.00;99.90;;;;;;5092711;28;20693;-81
2023/10/20 05:04:14;;;;;;;8.35;4.10;;;23.80;99.90;;;;;;5080455;28;20192;-84
2023/10/20 05:06:53;;;;;;;8.93;3.83;;;23.70;99.90;;;;;;5093119;28;20273;-84
2023/10/20 05:09:28;;;;;;;5.53;3.72;;;23.70;99.90;;;;;;5093597;28;20223;-84
2023/10/20 05:12:01;;;;;;;11.55;3.88;;;23.70;99.90;;;;;;5093389;28;20187;-81
2023/10/20 05:14:32;;;;;;;7.55;3.50;;;23.60;99.90;;;;;;5093250;28;20279;-86
2023/10/20 05:17:07;;;;;;;9.10;3.45;;;23.60;99.90;;;;;;5092575;28;20189;-78
2023/10/20 05:19:37;;;;;;;5.35;3.08;;;23.50;99.90;;;;;;5094144;28;20682;-81
2023/10/20 05:22:09;;;;;;;6.60;3.58;;;23.50;99.90;;;;;;5093062;28;20192;-82
2023/10/20 05:24:40;;;;;;;4.43;3.40;;;23.60;99.90;;;;;;5084262;28;20695;-83
2023/10/20 05:27:12;;;;;;;6.57;3.55;;;23.60;99.90;;;;;;5090434;28;20227;-82
2023/10/20 05:29:43;;;;;;;9.85;3.58;;;23.70;99.90;;;;;;5074030;28;20189;-78
2023/10/20 05:32:15;;;;;;;6.35;2.92;;;23.80;99.90;;;;;;5086178;28;20223;-76
2023/10/20 05:34:47;;;;;;;7.10;3.30;;;23.80;99.90;;;;;;5085789;28;20726;-81
2023/10/20 05:37:17;;;;;;;8.30;3.05;;;23.80;99.90;;;;;;5085119;28;20207;-82
2023/10/20 05:39:48;;;;;;;8.23;3.83;;;23.90;99.90;;;;;;5089393;28;20193;-86
2023/10/20 05:42:19;;;;;;;7.70;3.05;;;23.80;99.90;;;;;;5087451;28;20188;-83
2023/10/20 05:44:59;;;;;;;5.13;2.90;;;23.60;99.90;;;;;;5090821;28;20211;-79
2023/10/20 05:47:31;;;;;;;5.80;2.90;;;23.60;99.90;;;;;;5094433;28;20200;-85
2023/10/20 05:50:04;;;;;;;7.57;3.17;;;23.40;99.90;;;;;;5095097;28;20231;-84
2023/10/20 05:52:36;;;;;;;6.28;2.90;;;23.40;99.90;;;;;;5093957;28;20241;-85
2023/10/20 05:55:07;;;;;;;8.68;3.28;;;23.60;99.90;;;;;;5089512;28;20216;-87
2023/10/20 05:57:38;;;;;;;7.00;3.30;;;23.60;99.90;;;;;;5090430;28;20206;-79
2023/10/20 06:00:13;;;;;;;7.18;3.40;;;23.60;99.90;;;;;;5094081;28;20678;-78
2023/10/20 06:02:48;;;;;;;9.93;3.50;;;23.50;99.90;;;;;;5083752;28;20189;-82
2023/10/20 06:05:19;;;;;;;6.00;3.33;;;23.50;99.90;;;;;;5077372;28;20700;-80
2023/10/20 06:07:50;;;;;;;5.53;3.45;;;23.50;99.90;;;;;;5082958;28;20208;-83
2023/10/20 06:10:24;;;;;;;6.40;3.70;;;23.60;99.90;;;;;;5079875;28;20298;-85
2023/10/20 06:12:56;;;;;;;7.75;3.60;;;23.50;99.90;;;;;;5082129;28;20196;-85
2023/10/20 06:15:27;;;;;;;8.38;3.85;;;23.40;99.90;;;;;;5085495;28;20215;-81
2023/10/20 06:18:00;;;;;;;7.20;3.60;;;23.30;99.90;;;;;;5095558;28;20211;-80
2023/10/20 06:20:30;;;;;;;8.63;3.65;;;23.20;99.90;;;;;;5095664;28;20279;-80
2023/10/20 06:23:02;;;;;;;7.03;3.67;;;23.20;99.90;;;;;;5094805;28;20232;-82
2023/10/20 06:25:35;;;;;;;8.77;3.60;;;23.10;99.90;;;;;;5095870;28;20223;-86
2023/10/20 06:28:07;;;;;;;7.70;3.60;;;23.10;99.90;;;;;;5096067;28;20188;-86
2023/10/20 06:30:43;;;;;;;8.63;3.70;;;23.00;99.90;;;;;;5083627;28;20201;-80
2023/10/20 06:33:18;;;;;;;10.63;3.75;;;23.00;99.90;;;;;;5085001;28;20192;-84
2023/10/20 06:35:53;;;;;;;9.05;3.80;;;23.00;99.90;;;;;;5095258;28;20196;-84
2023/10/20 06:38:30;;;;;;;9.85;3.80;;;23.10;99.90;;;;;;5088161;28;20199;-87
2023/10/20 06:41:01;;;;;;;9.38;4.20;;;23.10;99.90;;;;;;5091603;28;20192;-79
2023/10/20 06:43:32;;;;;;;6.00;3.40;;;23.00;99.90;;;;;;5093661;28;20200;-80
2023/10/20 06:46:03;;;;;;;6.60;3.88;;;22.90;99.90;;;;;;5092641;28;20220;-83
2023/10/20 06:48:36;;;;;;;7.88;4.15;;;22.80;99.90;;;;;;5091535;28;20188;-79
2023/10/20 06:51:07;;;;;;;8.68;3.60;;;22.70;99.90;;;;;;5092490;28;20318;-80
2023/10/20 06:53:39;;;;;;;7.07;3.80;;;22.60;99.90;;;;;;5092396;28;20192;-85
2023/10/20 06:56:11;;;;;;;7.05;3.63;;;22.50;99.90;;;;;;5091424;28;20328;-83
2023/10/20 06:58:44;;;;;;;11.25;3.60;;;22.50;99.90;;;;;;5091455;28;20583;-79
2023/10/20 07:01:15;;;;;;;7.07;3.40;;;22.40;99.90;;;;;;5085980;28;20290;-81
2023/10/20 07:03:48;;;;;;;9.18;3.55;;;22.30;99.90;;;;;;5090479;28;20192;-80
2023/10/20 07:06:20;;;;;;;11.90;3.50;;;22.20;99.90;;;;;;5085151;28;20229;-82
2023/10/20 07:08:51;;;;;;;5.97;2.88;;;22.20;99.90;;;;;;5094553;28;20230;-84
2023/10/20 07:11:24;;;;;;;8.07;3.10;;;22.10;99.90;;;;;;5094697;28;20196;-82
2023/10/20 07:13:55;;;;;;;7.93;3.00;;;22.00;99.90;;;;;;5093800;28;20200;-83
2023/10/20 07:16:25;;;;;;;5.07;2.70;;;21.90;99.90;;;;;;5086129;28;20242;-86
2023/10/20 07:18:58;;;;;;;6.80;2.70;;;21.70;99.90;;;;;;5092095;28;20192;-86
2023/10/20 07:21:29;;;;;;;5.68;2.55;;;21.70;99.90;;;;;;5095215;28;20641;-81
2023/10/20 07:24:02;;;;;;;7.47;2.72;;;21.60;99.90;;;;;;5084770;28;20532;-82
2023/10/20 07:26:34;;;;;;;6.55;2.55;;;21.50;99.90;;;;;;5078735;28;20247;-83
2023/10/20 07:29:05;;;;;;;5.97;2.20;;;21.50;99.90;;;;;;5074640;28;20193;-83
2023/10/20 07:31:39;;;;;;;5.13;2.03;;;21.40;99.90;;;;;;5074620;28;20193;-82
2023/10/20 07:34:11;;;;;;;4.85;1.75;;;21.40;99.90;;;;;;5082855;28;20230;-85
2023/10/20 07:36:42;;;;;;;8.07;1.85;;;21.40;99.90;;;;;;5083964;28;20188;-82
2023/10/20 07:39:16;;;;;;;5.75;1.83;;;21.40;99.90;;;;;;5078703;28;20193;-81
2023/10/20 07:41:47;;;;;;;7.13;1.75;;;21.30;99.90;;;;;;5093719;28;20197;-80
2023/10/20 07:44:18;;;;;;;8.00;1.63;;;21.20;99.90;;;;;;5093964;28;20184;-84
2023/10/20 07:46:49;;;;;;;6.40;1.40;;;21.30;99.90;;;;;;5089623;28;20219;-84
2023/10/20 07:49:22;;;;;;;7.00;1.80;;;21.20;99.90;;;;;;5074369;28;20236;-80
2023/10/20 07:51:52;;;;;;;6.15;1.55;;;21.20;99.90;;;;;;5074156;28;20246;-82
2023/10/20 07:54:23;;;;;;;8.52;2.00;;;21.10;99.90;;;;;;5092513;28;20184;-83
2023/10/20 07:56:54;;;;;;;5.38;1.50;;;21.10;99.90;;;;;;5088864;28;20258;-84
2023/10/20 07:59:25;;;;;;;5.97;1.38;;;21.10;99.90;;;;;;5091400;28;20198;-83
2023/10/20 08:01:56;;;;;;;6.20;1.70;;;21.10;99.90;;;;;;5076001;28;20197;-84
2023/10/20 08:04:29;;;;;;;5.63;1.55;;;21.00;99.90;;;;;;5087100;28;20644;-82
2023/10/20 08:07:00;;;;;;;9.65;1.65;;;21.00;99.90;;;;;;5084939;28;20627;-81
2023/10/20 08:09:31;;;;;;;9.07;1.60;;;20.90;99.90;;;;;;5077684;28;20617;-77
2023/10/20 08:12:02;;;;;;;5.95;1.73;;;20.90;99.90;;;;;;5088801;28;20653;-82
2023/10/20 08:14:33;;;;;;;9.07;1.70;;;20.90;99.90;;;;;;5077634;28;20255;-82
2023/10/20 08:17:08;;;;;;;10.25;1.70;;;20.80;99.90;;;;;;5078024;28;20201;-81
2023/10/20 08:19:40;;;;;;;9.15;1.90;;;20.80;99.90;;;;;;5079837;28;20212;-83
2023/10/20 08:22:11;;;;;;;8.00;2.15;;;20.80;99.90;;;;;;5080184;28;20279;-79
2023/10/20 08:24:42;;;;;;;8.90;2.60;;;20.70;99.90;;;;;;5076990;28;20208;-81
2023/10/20 08:27:14;;;;;;;7.07;2.08;;;20.70;99.90;;;;;;5083671;28;20321;-84
2023/10/20 08:29:47;;;;;;;4.25;1.88;;;20.70;99.90;;;;;;5084910;28;20222;-80
2023/10/20 08:32:19;;;;;;;8.05;2.50;;;20.60;99.90;;;;;;5076074;28;20203;-76
2023/10/20 08:34:51;;;;;;;6.60;2.17;;;20.60;99.90;;;;;;5092609;28;20215;-84
2023/10/20 08:37:22;;;;;;;9.65;2.42;;;20.60;99.90;;;;;;5075490;28;20197;-80
2023/10/20 08:39:54;;;;;;;9.57;2.47;;;20.60;99.90;;;;;;5084801;28;20203;-83
2023/10/20 08:42:25;;;;;;;5.97;2.17;;;20.50;99.90;;;;;;5090556;28;20283;-77
2023/10/20 08:44:56;;;;;;;6.85;2.30;;;20.50;99.90;;;;;;5084036;28;20258;-83
2023/10/20 08:47:28;;;;;;;10.55;2.58;;;20.50;99.90;;;;;;5073548;28;20334;-84
2023/10/20 08:50:00;;;;;;;8.85;2.35;;;20.50;99.90;;;;;;5077411;28;20562;-82
2023/10/20 08:52:33;;;;;;;7.20;2.20;;;20.50;99.90;;;;;;5085483;28;20193;-79
2023/10/20 08:55:07;;;;;;;8.75;2.55;;;20.40;99.90;;;;;;5078943;28;20641;-84
2023/10/20 08:57:37;;;;;;;10.00;2.53;;;20.40;99.90;;;;;;5085205;28;20192;-83
2023/10/20 09:00:19;;;;;;;8.52;2.85;;;20.40;99.90;;;;;;5092851;28;20188;-79
2023/10/20 09:02:50;;;;;;;6.75;2.50;;;20.40;99.90;;;;;;5073354;28;20697;-82
2023/10/20 09:05:31;;;;;;;8.52;2.53;;;20.30;99.90;;;;;;5072932;28;20193;-87
2023/10/20 09:08:02;;;;;;;8.70;2.63;;;20.30;99.90;;;;;;5088225;28;20327;-85
2023/10/20 09:10:33;;;;;;;11.85;2.80;;;20.30;99.90;;;;;;5093339;28;20273;-82
2023/10/20 09:13:04;;;;;;;6.22;2.50;;;20.30;99.90;;;;;;5089372;28;20224;-84
2023/10/20 09:15:36;;;;;;;6.80;2.50;;;20.30;99.90;;;;;;5084526;28;20205;-84
2023/10/20 09:18:10;;;;;;;7.40;2.53;;;20.30;99.90;;;;;;5093731;28;20188;-81
2023/10/20 09:20:43;;;;;;;10.13;2.90;;;20.20;99.90;;;;;;5094733;28;20200;-84
2023/10/20 09:23:14;;;;;;;11.18;2.65;;;20.20;99.90;;;;;;5097539;28;20192;-84
2023/10/20 09:25:45;;;;;;;9.60;2.55;;;20.20;99.90;;;;;;5090272;28;20200;-85
2023/10/20 09:28:15;;;;;;;6.18;2.47;;;20.20;99.90;;;;;;5088750;28;20208;-84
2023/10/20 09:30:47;;;;;;;6.55;2.53;;;20.20;99.90;;;;;;5088183;28;20196;-80
2023/10/20 09:33:21;;;;;;;8.98;2.45;;;20.10;99.90;;;;;;5093693;28;20192;-80
2023/10/20 09:35:54;;;;;;;7.90;2.60;;;20.10;99.90;;;;;;5096451;28;20199;-82
2023/10/20 09:38:29;;;;;;;9.35;2.83;;;20.10;99.90;;;;;;5087416;28;20672;-81
2023/10/20 09:41:11;;;;;;;8.85;3.00;;;20.10;99.90;;;;;;5090645;28;20690;-84
2023/10/20 09:43:52;;;;;;;6.50;2.45;;;20.10;99.90;;;;;;5086029;28;20589;-81
2023/10/20 09:46:53;;;;;;;7.57;2.55;;;20.10;99.90;;;;;;5083352;28;20212;-83
2023/10/20 09:49:25;;;;;;;6.35;2.17;;;20.10;99.90;;;;;;5096321;28;20200;-84
2023/10/20 09:51:59;;;;;;;10.27;2.67;;;20.10;99.90;;;;;;5094849;28;20227;-81
2023/10/20 09:54:32;;;;;;;7.63;2.35;;;20.10;99.90;;;;;;5084200;28;20204;-84
2023/10/20 09:57:07;;;;;;;10.57;3.25;;;20.10;99.90;;;;;;5091051;28;20192;-82
2023/10/20 09:59:41;;;;;;;7.13;2.40;;;20.10;99.90;;;;;;5095919;28;20196;-83
2023/10/20 10:02:12;;;;;;;7.50;2.15;;;20.10;99.90;;;;;;5086900;28;20201;-82
2023/10/20 10:04:46;;;;;;;13.88;2.75;;;20.10;99.90;;;;;;5090767;28;20188;-84
2023/10/20 10:07:28;;;;;;;8.38;2.30;;;20.10;99.90;;;;;;5087492;28;20247;-85
2023/10/20 10:09:59;;;;;;;8.73;2.35;;;20.10;99.90;;;;;;5091842;28;20566;-84
2023/10/20 10:12:31;;;;;;;6.35;2.00;;;20.10;99.90;;;;;;5080875;28;20201;-83
2023/10/20 10:15:06;;;;;;;8.43;2.45;;;20.10;99.90;;;;;;5075799;28;20197;-82
2023/10/20 10:17:48;;;;;;;9.10;2.10;;;20.10;99.90;;;;;;5078885;28;20245;-83
2023/10/20 10:20:25;;;;;;;9.40;2.10;;;20.10;99.90;;;;;;5076317;28;20676;-83
2023/10/20 10:23:07;;;;;;;12.07;2.20;;;20.10;99.90;;;;;;5075730;28;20206;-84
2023/10/20 10:25:39;;;;;;;6.95;2.00;;;20.10;99.90;;;;;;5084690;28;20200;-83
2023/10/20 10:28:14;;;;;;;6.82;2.30;;;20.10;99.90;;;;;;5086932;28;20302;-83
2023/10/20 10:30:46;;;;;;;7.07;1.98;;;20.10;99.90;;;;;;5082373;28;20257;-85
2023/10/20 10:33:25;;;;;;;7.35;2.03;;;20.00;99.90;;;;;;5083158;28;20201;-83
2023/10/20 10:36:09;;;;;;;7.93;2.10;;;20.00;99.90;;;;;;5094882;28;20312;-83
2023/10/20 10:38:48;;;;;;;11.10;1.95;;;20.00;99.90;;;;;;5094651;28;20242;-83
2023/10/20 10:41:25;;;;;;;10.20;2.03;;;20.00;99.90;;;;;;5091509;28;20196;-81
2023/10/20 10:43:57;;;;;;;8.90;1.98;;;20.00;99.90;;;;;;5091277;28;20206;-77
2023/10/20 10:46:38;;;;;;;9.63;1.92;;;20.00;99.90;;;;;;5093223;28;20637;-85
2023/10/20 10:49:12;;;;;;;9.85;2.10;;;20.00;99.90;;;;;;5086788;28;20253;-85
2023/10/20 10:51:47;;;;;;;7.30;1.90;;;20.00;99.90;;;;;;5093946;28;20297;-83
2023/10/20 10:54:20;;;;;;;11.32;2.70;;;20.00;99.90;;;;;;5086963;28;20723;-83
2023/10/20 10:56:51;;;;;;;10.10;1.85;;;19.90;99.90;;;;;;5090411;28;20689;-82
2023/10/20 10:59:23;;;;;;;8.43;2.15;;;19.90;99.90;;;;;;5090448;28;20207;-83
2023/10/20 11:01:53;;;;;;;6.57;1.83;;;19.80;99.90;;;;;;5093119;28;20775;-83
2023/10/20 11:04:24;;;;;;;7.80;1.90;;;19.80;99.90;;;;;;5086840;28;20201;-85
2023/10/20 11:06:55;;;;;;;6.97;2.10;;;19.80;99.90;;;;;;5081045;28;20208;-80
2023/10/20 11:09:30;;;;;;;8.57;2.10;;;19.80;99.90;;;;;;5075932;28;20260;-82
2023/10/20 11:12:01;;;;;;;6.20;2.08;;;19.80;99.90;;;;;;5094836;28;20703;-82
2023/10/20 11:14:33;;;;;;;9.38;1.98;;;19.70;99.90;;;;;;5094617;28;20275;-83
2023/10/20 11:17:06;;;;;;;5.75;1.63;;;19.70;99.90;;;;;;5088090;28;20727;-85
2023/10/20 11:19:39;;;;;;;6.03;1.80;;;19.70;99.90;;;;;;5093290;28;20196;-80
2023/10/20 11:22:17;;;;;;;6.45;1.60;;;19.70;99.90;;;;;;5083562;28;20683;-83
2023/10/20 11:24:56;;;;;;;9.20;2.13;;;19.70;99.90;;;;;;5090941;28;20275;-82
2023/10/20 11:27:27;;;;;;;8.95;1.65;;;19.60;99.90;;;;;;5089656;28;20221;-84
2023/10/20 11:30:01;;;;;;;7.90;1.92;;;19.60;99.90;;;;;;5074829;28;20232;-83
2023/10/20 11:32:33;;;;;;;8.02;2.00;;;19.60;99.90;;;;;;5085654;28;20235;-80
2023/10/20 11:35:06;;;;;;;7.20;1.63;;;19.60;99.90;;;;;;5090050;28;20671;-78
2023/10/20 11:37:36;;;;;;;9.20;2.00;;;19.60;99.90;;;;;;5085862;28;20197;-83
2023/10/20 11:40:10;;;;;;;10.25;1.90;;;19.60;99.90;;;;;;5088745;28;20608;-85
2023/10/20 11:42:41;;;;;;;10.77;1.77;;;19.60;99.90;;;;;;5080750;28;20250;-82
2023/10/20 11:45:13;;;;;;;5.47;1.75;;;19.60;99.90;;;;;;5094409;28;20192;-82
2023/10/20 11:47:44;;;;;;;10.27;1.98;;;19.60;99.90;;;;;;5091582;28;20230;-82
2023/10/20 11:50:15;;;;;;;13.68;1.83;;;19.60;99.90;;;;;;5083898;28;20220;-84
2023/10/20 11:52:47;;;;;;;5.10;1.60;;;19.60;99.90;;;;;;5092548;28;20188;-84
2023/10/20 11:55:20;;;;;;;6.30;1.50;;;19.60;99.90;;;;;;5089518;28;20196;-84
2023/10/20 11:57:51;;;;;;;9.38;1.90;;;19.60;99.90;;;;;;5091623;28;20207;-84
2023/10/20 12:00:22;;;;;;;6.60;1.40;;;19.60;99.90;;;;;;5091194;28;20200;-82
2023/10/20 12:02:53;;;;;;;7.43;1.58;;;19.60;99.90;;;;;;5089227;28;20200;-85
2023/10/20 12:05:25;;;;;;;7.60;1.58;;;19.60;99.90;;;;;;5091967;28;20200;-85
2023/10/20 12:07:56;;;;;;;4.95;1.58;;;19.60;99.90;;;;;;5093868;28;20243;-83
2023/10/20 12:10:29;;;;;;;7.68;1.88;;;19.50;99.90;;;;;;5084941;28;20201;-84
2023/10/20 12:13:02;;;;;;;6.60;1.48;;;19.50;99.90;;;;;;5074859;28;20197;-85
2023/10/20 12:15:33;;;;;;;6.30;1.60;;;19.50;99.90;;;;;;5085746;28;20276;-84
2023/10/20 12:18:04;;;;;;;7.00;1.48;;;19.40;99.90;;;;;;5073793;28;20275;-85
2023/10/20 12:20:35;;;;;;;8.60;1.85;;;19.50;99.90;;;;;;5083323;28;20283;-84
2023/10/20 12:23:06;;;;;;;7.68;2.00;;;19.50;99.90;;;;;;5090605;28;20217;-84
2023/10/20 12:25:38;;;;;;;11.57;1.90;;;19.40;99.90;;;;;;5080955;28;20196;-82
2023/10/20 12:28:10;;;;;;;11.57;1.83;;;19.40;99.90;;;;;;5087819;28;20218;-83
2023/10/20 12:30:41;;;;;;;9.80;1.90;;;19.40;99.90;;;;;;5088831;28;20199;-84
2023/10/20 12:33:12;;;;;;;6.55;1.30;;;19.40;99.90;;;;;;5093830;28;20304;-83
2023/10/20 12:35:43;;;;;;;7.95;1.48;;;19.40;99.90;;;;;;5091923;28;20192;-82
2023/10/20 12:38:16;;;;;;;10.25;1.50;;;19.40;99.90;;;;;;5091795;28;20212;-84
2023/10/20 12:40:48;;;;;;;7.88;1.65;;;19.30;99.90;;;;;;5079321;28;20196;-82
2023/10/20 12:43:20;;;;;;;6.25;1.67;;;19.30;99.90;;;;;;5084693;28;20661;-81
2023/10/20 12:45:50;;;;;;;8.25;1.85;;;19.30;99.90;;;;;;5088113;28;20228;-82
2023/10/20 12:48:21;;;;;;;8.25;1.40;;;19.30;99.90;;;;;;5082708;28;20231;-84
2023/10/20 12:50:53;;;;;;;12.18;1.90;;;19.20;99.90;;;;;;5078253;28;20232;-84
2023/10/20 12:53:24;;;;;;;8.32;1.75;;;19.00;99.90;;;;;;5092993;28;20200;-85
2023/10/20 12:55:58;;;;;;;10.45;1.75;;;19.20;99.90;;;;;;5084372;28;20554;-85
2023/10/20 12:58:30;;;;;;;7.88;1.85;;;19.20;99.90;;;;;;5089272;28;20200;-84
2023/10/20 13:01:00;;;;;;;5.57;1.38;;;19.10;99.90;;;;;;5088918;28;20279;-82
2023/10/20 13:03:31;;;;;;;4.70;1.33;;;19.10;99.90;;;;;;5083130;28;20199;-81
2023/10/20 13:06:02;;;;;;;5.97;1.45;;;19.10;99.90;;;;;;5084804;28;20287;-78
2023/10/20 13:08:33;;;;;;;5.65;1.65;;;19.00;99.90;;;;;;5081726;28;20254;-86
2023/10/20 13:11:06;;;;;;;8.45;1.60;;;19.00;99.90;;;;;;5082060;28;20189;-80
2023/10/20 13:13:37;;;;;;;8.98;1.40;;;19.00;99.90;;;;;;5088457;28;20194;-80
2023/10/20 13:16:08;;;;;;;10.30;1.70;;;19.00;99.90;;;;;;5074458;28;20188;-83
2023/10/20 13:18:39;;;;;;;11.32;1.70;;;18.90;99.90;;;;;;5075376;28;20196;-79
2023/10/20 13:21:10;;;;;;;8.75;1.70;;;18.90;99.90;;;;;;5081833;28;20757;-77
2023/10/20 13:23:41;;;;;;;4.70;1.33;;;18.80;99.90;;;;;;5088027;28;20196;-81
2023/10/20 13:26:14;;;;;;;6.80;1.52;;;18.80;99.90;;;;;;5087688;28;20236;-79
2023/10/20 13:28:45;;;;;;;6.45;1.75;;;18.80;99.90;;;;;;5085907;28;20712;-78
2023/10/20 13:31:21;;;;;;;6.25;1.50;;;18.70;99.90;;;;;;5088819;28;20223;-78
2023/10/20 13:33:52;;;;;;;10.02;1.60;;;18.70;99.90;;;;;;5072787;28;20267;-82
2023/10/20 13:36:24;;;;;;;10.93;1.55;;;18.70;99.90;;;;;;5078828;28;20192;-79